createdAt,value
2018-12-23T00:00:30.738Z,10.63
2018-12-23T00:02:58.865Z,8.03
2018-12-23T00:05:27.008Z,6.07
2018-12-23T00:07:55.128Z,6.47
2018-12-23T00:10:23.176Z,8.40
2018-12-23T00:12:51.288Z,8.23
2018-12-23T00:15:19.474Z,9.07
2018-12-23T00:17:47.552Z,10.90
2018-12-23T00:20:15.792Z,7.37
2018-12-23T00:22:44.086Z,7.55
2018-12-23T00:25:12.245Z,5.60
2018-12-23T00:27:40.417Z,7.33
2018-12-23T00:30:10.883Z,8.40
2018-12-23T00:32:39.051Z,7.07
2018-12-23T00:35:07.283Z,10.50
2018-12-23T00:37:35.385Z,7.20
2018-12-23T00:40:03.896Z,8.50
2018-12-23T00:42:31.982Z,5.70
2018-12-23T00:45:00.164Z,8.83
2018-12-23T00:47:28.193Z,9.53
2018-12-23T00:49:56.201Z,6.43
2018-12-23T00:52:24.409Z,6.90
2018-12-23T00:54:52.593Z,5.05
2018-12-23T00:57:20.695Z,8.15
2018-12-23T00:59:48.701Z,6.90
2018-12-23T01:02:16.809Z,7.90
2018-12-23T01:04:44.858Z,11.83
2018-12-23T01:07:12.987Z,7.05
2018-12-23T01:09:41.193Z,9.03
2018-12-23T01:12:09.312Z,4.87
2018-12-23T01:14:37.377Z,10.88
2018-12-23T01:17:05.440Z,4.92
2018-12-23T01:19:33.513Z,6.75
2018-12-23T01:22:01.546Z,6.25
2018-12-23T01:24:29.660Z,8.98
2018-12-23T01:26:57.652Z,7.53
2018-12-23T01:29:25.786Z,7.65
2018-12-23T01:31:53.878Z,8.73
2018-12-23T01:34:21.923Z,9.55
2018-12-23T01:36:50.020Z,8.65
2018-12-23T01:39:18.128Z,8.60
2018-12-23T01:41:46.194Z,7.05
2018-12-23T01:44:14.317Z,11.45
2018-12-23T01:46:42.438Z,7.40
2018-12-23T01:49:10.783Z,5.95
2018-12-23T01:51:38.769Z,6.03
2018-12-23T01:54:06.828Z,8.55
2018-12-23T01:56:34.907Z,6.80
2018-12-23T01:59:02.950Z,8.70
2018-12-23T02:01:31.029Z,7.90
2018-12-23T02:03:59.078Z,8.50
2018-12-23T02:06:27.105Z,6.83
2018-12-23T02:08:55.127Z,9.40
2018-12-23T02:11:23.125Z,7.70
2018-12-23T02:13:51.154Z,6.00
2018-12-23T02:16:19.177Z,6.70
2018-12-23T02:18:47.257Z,7.35
2018-12-23T02:21:15.409Z,7.83
2018-12-23T02:23:43.455Z,6.47
2018-12-23T02:26:11.539Z,4.90
2018-12-23T02:28:39.534Z,7.43
2018-12-23T02:31:07.689Z,6.03
2018-12-23T02:33:35.937Z,7.53
2018-12-23T02:36:04.092Z,5.93
2018-12-23T02:38:32.495Z,5.80
2018-12-23T02:41:00.773Z,5.03
2018-12-23T02:43:28.739Z,9.15
2018-12-23T02:45:56.835Z,3.50
2018-12-23T02:48:24.822Z,6.37
2018-12-23T02:50:52.882Z,7.12
2018-12-23T02:53:20.848Z,5.15
2018-12-23T02:55:48.818Z,8.00
2018-12-23T02:58:16.894Z,6.58
2018-12-23T03:00:44.926Z,7.70
2018-12-23T03:03:13.034Z,8.97
2018-12-23T03:05:41.098Z,7.83
2018-12-23T03:08:09.092Z,11.83
2018-12-23T03:10:37.087Z,11.20
2018-12-23T03:13:05.210Z,8.25
2018-12-23T03:15:33.241Z,9.20
2018-12-23T03:18:01.269Z,11.03
2018-12-23T03:20:29.332Z,13.53
2018-12-23T03:22:57.562Z,7.10
2018-12-23T03:25:25.699Z,14.07
2018-12-23T03:27:53.706Z,8.98
2018-12-23T03:30:21.706Z,9.00
2018-12-23T03:32:49.841Z,8.08
2018-12-23T03:35:17.957Z,5.25
2018-12-23T03:37:45.973Z,7.77
2018-12-23T03:40:14.116Z,10.23
2018-12-23T03:42:42.335Z,5.90
2018-12-23T03:45:10.390Z,5.15
2018-12-23T03:47:38.392Z,12.00
2018-12-23T03:50:06.690Z,8.48
2018-12-23T03:52:34.711Z,5.07
2018-12-23T03:55:02.922Z,12.00
2018-12-23T03:57:31.310Z,7.15
2018-12-23T03:59:59.403Z,6.63
2018-12-23T04:02:27.420Z,7.17
2018-12-23T04:04:55.547Z,6.22
2018-12-23T04:07:23.544Z,8.55
2018-12-23T04:09:51.573Z,5.80
2018-12-23T04:12:19.618Z,8.00
2018-12-23T04:14:47.636Z,6.87
2018-12-23T04:17:15.688Z,7.30
2018-12-23T04:19:43.723Z,8.10
2018-12-23T04:22:11.782Z,7.72
2018-12-23T04:24:41.877Z,8.08
2018-12-23T04:27:09.930Z,7.08
2018-12-23T04:29:38.087Z,7.63
2018-12-23T04:32:06.227Z,9.53
2018-12-23T04:34:34.666Z,9.65
2018-12-23T04:37:02.761Z,6.05
2018-12-23T04:39:31.016Z,8.05
2018-12-23T04:41:58.981Z,4.92
2018-12-23T04:44:26.951Z,7.00
2018-12-23T04:46:54.949Z,5.03
2018-12-23T04:49:22.991Z,6.28
2018-12-23T04:51:51.310Z,7.85
2018-12-23T04:54:19.308Z,10.18
2018-12-23T04:56:47.373Z,5.55
2018-12-23T04:59:15.409Z,8.13
2018-12-23T05:01:43.585Z,9.75
2018-12-23T05:04:11.658Z,9.90
2018-12-23T05:06:43.513Z,9.48
2018-12-23T05:09:09.746Z,9.25
2018-12-23T05:11:37.867Z,8.40
2018-12-23T05:14:05.942Z,7.28
2018-12-23T05:16:33.993Z,12.07
2018-12-23T05:19:02.090Z,10.48
2018-12-23T05:21:30.079Z,6.25
2018-12-23T05:23:58.123Z,5.95
2018-12-23T05:26:26.088Z,12.82
2018-12-23T05:28:54.097Z,9.15
2018-12-23T05:31:22.086Z,7.72
2018-12-23T05:33:50.151Z,5.37
2018-12-23T05:36:18.362Z,7.30
2018-12-23T05:38:46.470Z,8.43
2018-12-23T05:41:14.440Z,10.80
2018-12-23T05:43:42.479Z,7.60
2018-12-23T05:46:10.519Z,10.43
2018-12-23T05:48:38.682Z,8.20
2018-12-23T05:51:06.669Z,8.23
2018-12-23T05:53:34.729Z,10.75
2018-12-23T05:56:02.861Z,8.85
2018-12-23T05:58:30.924Z,8.90
2018-12-23T06:00:58.956Z,8.13
2018-12-23T06:03:26.923Z,8.38
2018-12-23T06:05:55.606Z,5.17
2018-12-23T06:08:23.634Z,8.73
2018-12-23T06:10:51.603Z,6.22
2018-12-23T06:13:20.592Z,8.95
2018-12-23T06:15:48.590Z,8.70
2018-12-23T06:18:16.727Z,8.35
2018-12-23T06:20:44.793Z,6.20
2018-12-23T06:23:12.959Z,8.78
2018-12-23T06:25:40.939Z,5.83
2018-12-23T06:28:08.934Z,4.92
2018-12-23T06:30:36.975Z,7.42
2018-12-23T06:33:04.977Z,7.35
2018-12-23T06:35:33.027Z,10.75
2018-12-23T06:38:01.066Z,9.18
2018-12-23T06:40:29.039Z,7.75
2018-12-23T06:42:57.002Z,7.87
2018-12-23T06:45:24.968Z,4.12
2018-12-23T06:47:52.966Z,5.53
2018-12-23T06:50:21.095Z,9.90
2018-12-23T06:52:49.110Z,9.93
2018-12-23T06:55:17.113Z,6.25
2018-12-23T06:57:45.282Z,9.08
2018-12-23T07:00:13.254Z,5.83
2018-12-23T07:02:41.295Z,8.90
2018-12-23T07:05:09.266Z,6.42
2018-12-23T07:07:37.271Z,9.70
2018-12-23T07:10:07.099Z,5.33
2018-12-23T07:12:35.120Z,10.25
2018-12-23T07:15:03.244Z,8.60
2018-12-23T07:17:31.226Z,8.23
2018-12-23T07:19:59.235Z,5.58
2018-12-23T07:22:27.459Z,6.85
2018-12-23T07:24:55.447Z,13.93
2018-12-23T07:27:23.393Z,4.50
2018-12-23T07:29:51.412Z,14.03
2018-12-23T07:32:19.447Z,9.90
2018-12-23T07:34:47.457Z,5.33
2018-12-23T07:37:15.528Z,6.55
2018-12-23T07:39:43.658Z,8.13
2018-12-23T07:42:11.760Z,9.18
2018-12-23T07:44:39.888Z,5.62
2018-12-23T07:47:07.852Z,3.95
2018-12-23T07:49:36.098Z,7.92
2018-12-23T07:52:04.257Z,4.90
2018-12-23T07:54:32.730Z,7.92
2018-12-23T07:57:00.783Z,12.05
2018-12-23T07:59:28.848Z,9.80
2018-12-23T08:01:57.067Z,7.72
2018-12-23T08:04:25.179Z,8.80
2018-12-23T08:06:53.243Z,9.80
2018-12-23T08:09:21.280Z,9.18
2018-12-23T08:11:49.320Z,6.58
2018-12-23T08:14:17.371Z,6.83
2018-12-23T08:16:45.475Z,8.10
2018-12-23T08:19:13.594Z,3.60
2018-12-23T08:21:41.620Z,9.85
2018-12-23T08:24:09.651Z,6.72
2018-12-23T08:26:37.701Z,9.25
2018-12-23T08:29:05.812Z,5.40
2018-12-23T08:31:33.879Z,8.05
2018-12-23T08:34:01.911Z,7.78
2018-12-23T08:36:29.936Z,6.00
2018-12-23T08:38:58.041Z,7.72
2018-12-23T08:41:26.271Z,5.00
2018-12-23T08:43:54.527Z,8.03
2018-12-23T08:46:22.698Z,5.37
2018-12-23T08:48:50.855Z,7.20
2018-12-23T08:51:18.902Z,12.33
2018-12-23T08:53:46.934Z,7.00
2018-12-23T08:56:14.923Z,9.65
2018-12-23T08:58:42.983Z,10.70
2018-12-23T09:01:11.026Z,9.33
2018-12-23T09:03:39.052Z,11.73
2018-12-23T09:06:07.086Z,8.90
2018-12-23T09:08:35.102Z,12.23
2018-12-23T09:11:03.205Z,8.60
2018-12-23T09:13:31.252Z,9.65
2018-12-23T09:15:59.434Z,8.30
2018-12-23T09:18:27.519Z,11.63
2018-12-23T09:20:55.687Z,11.53
2018-12-23T09:23:23.794Z,12.10
2018-12-23T09:25:51.837Z,7.15
2018-12-23T09:28:19.994Z,14.33
2018-12-23T09:30:48.106Z,11.73
2018-12-23T09:33:16.289Z,10.72
2018-12-23T09:35:44.312Z,13.87
2018-12-23T09:38:12.678Z,11.48
2018-12-23T09:40:40.967Z,10.63
2018-12-23T09:43:09.156Z,10.65
2018-12-23T09:45:37.281Z,9.30
2018-12-23T09:48:05.435Z,10.00
2018-12-23T09:50:33.571Z,14.03
2018-12-23T09:53:01.682Z,9.53
2018-12-23T09:55:29.849Z,13.22
2018-12-23T09:57:57.983Z,12.28
2018-12-23T10:00:26.110Z,10.43
2018-12-23T10:02:54.677Z,7.72
2018-12-23T10:05:22.870Z,9.03
2018-12-23T10:07:50.982Z,11.97
2018-12-23T10:10:19.107Z,14.13
2018-12-23T10:12:47.191Z,10.13
2018-12-23T10:15:15.360Z,11.05
2018-12-23T10:17:43.455Z,10.60
2018-12-23T10:20:11.733Z,9.43
2018-12-23T10:22:39.855Z,14.10
2018-12-23T10:25:08.071Z,11.47
2018-12-23T10:27:36.319Z,13.23
2018-12-23T10:30:05.144Z,7.42
2018-12-23T10:32:33.240Z,16.17
2018-12-23T10:35:01.425Z,7.42
2018-12-23T10:37:29.645Z,12.57
2018-12-23T10:39:57.822Z,9.67
2018-12-23T10:42:25.832Z,17.25
2018-12-23T10:44:54.089Z,7.07
2018-12-23T10:47:22.366Z,10.88
2018-12-23T10:49:50.488Z,13.90
2018-12-23T10:52:18.545Z,13.15
2018-12-23T10:54:47.023Z,13.07
2018-12-23T10:57:15.210Z,15.60
2018-12-23T10:59:43.388Z,18.90
2018-12-23T11:02:13.781Z,12.93
2018-12-23T11:04:41.655Z,11.03
2018-12-23T11:07:09.733Z,13.77
2018-12-23T11:09:37.936Z,10.03
2018-12-23T11:12:06.102Z,13.13
2018-12-23T11:14:34.366Z,12.67
2018-12-23T11:17:02.497Z,10.68
2018-12-23T11:19:30.612Z,12.82
2018-12-23T11:22:07.637Z,12.10
2018-12-23T11:24:35.807Z,16.13
2018-12-23T11:27:04.174Z,11.47
2018-12-23T11:29:32.325Z,14.93
2018-12-23T11:32:00.487Z,11.80
2018-12-23T11:34:28.707Z,8.43
2018-12-23T11:36:57.299Z,7.80
2018-12-23T11:39:25.542Z,12.73
2018-12-23T11:41:53.732Z,11.78
2018-12-23T11:44:21.929Z,19.15
2018-12-23T11:46:50.938Z,13.25
2018-12-23T11:49:19.228Z,13.93
2018-12-23T11:51:47.376Z,13.08
2018-12-23T11:54:15.637Z,19.07
2018-12-23T11:56:43.722Z,14.33
2018-12-23T11:59:11.873Z,17.33
2018-12-23T12:01:40.050Z,14.43
2018-12-23T12:04:08.208Z,17.40
2018-12-23T12:06:36.741Z,14.43
2018-12-23T12:09:07.441Z,17.20
2018-12-23T12:11:35.837Z,14.87
2018-12-23T12:14:04.529Z,18.65
2018-12-23T12:16:32.736Z,19.33
2018-12-23T12:19:01.247Z,16.30
2018-12-23T12:21:29.456Z,14.27
2018-12-23T12:23:57.883Z,15.35
2018-12-23T12:26:26.225Z,30.65
2018-12-23T12:28:54.613Z,12.53
2018-12-23T12:31:22.977Z,17.47
2018-12-23T12:33:51.344Z,13.68
2018-12-23T12:36:19.912Z,15.85
2018-12-23T12:38:52.105Z,17.55
2018-12-23T12:41:18.475Z,20.05
2018-12-23T12:43:46.627Z,16.62
2018-12-23T12:46:14.811Z,13.08
2018-12-23T12:48:43.204Z,17.50
2018-12-23T12:51:11.733Z,19.55
2018-12-23T12:53:39.964Z,20.10
2018-12-23T12:56:08.195Z,19.62
2018-12-23T12:58:36.325Z,18.00
2018-12-23T13:01:04.568Z,14.73
2018-12-23T13:03:32.843Z,16.23
2018-12-23T13:06:01.153Z,20.60
2018-12-23T13:08:29.399Z,13.68
2018-12-23T13:10:57.626Z,20.23
2018-12-23T13:13:25.810Z,17.42
2018-12-23T13:15:54.061Z,21.12
2018-12-23T13:18:22.133Z,15.43
2018-12-23T13:20:50.429Z,21.48
2018-12-23T13:23:18.661Z,11.90
2018-12-23T13:25:46.968Z,15.55
2018-12-23T13:28:15.419Z,13.10
2018-12-23T13:30:43.613Z,14.98
2018-12-23T13:33:11.785Z,14.98
2018-12-23T13:35:39.919Z,17.00
2018-12-23T13:38:08.184Z,14.03
2018-12-23T13:40:51.870Z,19.15
2018-12-23T13:44:38.416Z,16.07
2018-12-23T13:48:22.058Z,17.15
2018-12-23T13:54:22.379Z,12.05
2018-12-23T13:57:17.232Z,16.20
2018-12-23T14:01:09.715Z,17.62
2018-12-23T14:05:24.814Z,14.43
2018-12-23T14:08:40.676Z,15.43
2018-12-23T14:11:55.556Z,13.20
2018-12-23T14:14:24.019Z,21.80
2018-12-23T14:16:52.330Z,16.70
2018-12-23T14:19:20.724Z,12.35
2018-12-23T14:21:48.999Z,13.05
2018-12-23T14:24:17.178Z,15.95
2018-12-23T14:26:45.379Z,11.00
2018-12-23T14:29:13.507Z,9.68
2018-12-23T14:31:41.638Z,10.55
2018-12-23T14:34:09.899Z,10.88
2018-12-23T14:36:38.192Z,12.40
2018-12-23T14:39:08.360Z,10.53
2018-12-23T14:41:36.629Z,9.70
2018-12-23T14:44:04.809Z,9.13
2018-12-23T14:46:32.924Z,9.65
2018-12-23T14:49:01.103Z,7.42
2018-12-23T14:51:29.329Z,9.90
2018-12-23T14:53:57.572Z,10.63
2018-12-23T14:56:25.974Z,6.62
2018-12-23T14:58:54.358Z,10.03
2018-12-23T15:01:22.589Z,9.40
2018-12-23T15:03:50.702Z,8.48
2018-12-23T15:06:18.867Z,11.95
2018-12-23T15:08:47.045Z,12.43
2018-12-23T15:11:15.484Z,7.72
2018-12-23T15:13:43.750Z,12.37
2018-12-23T15:16:12.038Z,9.38
2018-12-23T15:18:43.220Z,10.98
2018-12-23T15:21:11.503Z,15.70
2018-12-23T15:23:39.773Z,6.95
2018-12-23T15:26:07.990Z,8.80
2018-12-23T15:28:36.131Z,7.95
2018-12-23T15:31:04.447Z,5.33
2018-12-23T15:33:32.509Z,6.20
2018-12-23T15:36:00.753Z,8.30
2018-12-23T15:38:29.604Z,9.63
2018-12-23T15:41:01.873Z,6.42
2018-12-23T15:43:30.183Z,9.13
2018-12-23T15:45:58.460Z,8.35
2018-12-23T15:48:26.601Z,7.78
2018-12-23T15:50:54.997Z,4.87
2018-12-23T15:53:23.278Z,5.58
2018-12-23T15:55:51.507Z,7.95
2018-12-23T15:58:19.860Z,5.53
2018-12-23T16:00:48.196Z,6.03
2018-12-23T16:03:16.419Z,5.08
2018-12-23T16:05:44.960Z,9.10
2018-12-23T16:08:13.637Z,7.78
2018-12-23T16:10:42.025Z,6.58
2018-12-23T16:13:10.335Z,6.97
2018-12-23T16:15:38.586Z,6.03
2018-12-23T16:18:06.853Z,9.13
2018-12-23T16:20:36.636Z,6.72
2018-12-23T16:23:04.976Z,3.92
2018-12-23T16:25:33.344Z,7.58
2018-12-23T16:28:01.737Z,8.75
2018-12-23T16:30:30.354Z,10.40
2018-12-23T16:32:58.671Z,9.25
2018-12-23T16:35:27.044Z,7.60
2018-12-23T16:37:55.711Z,10.25
2018-12-23T16:40:24.102Z,8.10
2018-12-23T16:42:53.335Z,8.15
2018-12-23T16:45:21.855Z,8.60
2018-12-23T16:47:50.396Z,10.18
2018-12-23T16:50:18.713Z,8.18
2018-12-23T16:52:47.257Z,6.67
2018-12-23T16:55:15.526Z,9.18
2018-12-23T16:57:43.825Z,8.18
2018-12-23T17:00:14.627Z,7.85
2018-12-23T17:02:42.933Z,9.13
2018-12-23T17:05:11.282Z,9.60
2018-12-23T17:07:39.834Z,9.90
2018-12-23T17:10:09.103Z,7.40
2018-12-23T17:12:37.766Z,7.00
2018-12-23T17:15:08.035Z,7.12
2018-12-23T17:17:36.495Z,7.87
2018-12-23T17:20:08.261Z,10.40
2018-12-23T17:22:36.697Z,9.98
2018-12-23T17:25:05.284Z,10.85
2018-12-23T17:27:33.699Z,7.15
2018-12-23T17:30:02.249Z,11.50
2018-12-23T17:32:30.515Z,7.07
2018-12-23T17:34:58.901Z,9.98
2018-12-23T17:37:27.467Z,6.85
2018-12-23T17:39:55.940Z,9.18
2018-12-23T17:42:24.271Z,8.05
2018-12-23T17:44:52.530Z,11.00
2018-12-23T17:47:20.911Z,8.60
2018-12-23T17:49:49.295Z,7.42
2018-12-23T17:52:23.159Z,8.20
2018-12-23T17:54:47.925Z,8.35
2018-12-23T17:57:16.150Z,10.20
2018-12-23T17:59:51.086Z,9.13
2018-12-23T18:02:20.246Z,7.75
2018-12-23T18:04:48.565Z,8.88
2018-12-23T18:07:17.060Z,11.45
2018-12-23T18:09:45.426Z,10.10
2018-12-23T18:12:13.825Z,8.28
2018-12-23T18:14:42.183Z,11.60
2018-12-23T18:17:10.699Z,10.00
2018-12-23T18:19:39.058Z,10.30
2018-12-23T18:22:07.481Z,9.03
2018-12-23T18:24:35.825Z,10.23
2018-12-23T18:27:04.201Z,8.15
2018-12-23T18:29:32.623Z,10.40
2018-12-23T18:32:01.065Z,8.23
2018-12-23T18:34:29.607Z,10.50
2018-12-23T18:36:58.001Z,8.33
2018-12-23T18:39:26.775Z,8.93
2018-12-23T18:41:55.222Z,10.35
2018-12-23T18:44:23.643Z,9.73
2018-12-23T18:46:52.114Z,8.53
2018-12-23T18:49:20.956Z,9.78
2018-12-23T18:51:49.533Z,8.65
2018-12-23T18:54:17.759Z,10.60
2018-12-23T18:56:49.408Z,11.33
2018-12-23T18:59:20.981Z,10.05
2018-12-23T19:02:01.877Z,13.30
2018-12-23T19:04:32.494Z,13.38
2018-12-23T19:07:00.951Z,13.80
2018-12-23T19:09:43.814Z,12.18
2018-12-23T19:17:38.595Z,14.70
2018-12-23T19:20:45.812Z,16.50
2018-12-23T19:24:58.488Z,16.62
2018-12-23T19:28:45.535Z,16.75
2018-12-23T19:36:39.829Z,19.35
2018-12-23T19:39:27.144Z,17.92
2018-12-23T19:44:14.493Z,13.20
2018-12-23T19:48:03.064Z,15.18
2018-12-23T19:55:07.735Z,12.13
2018-12-23T20:00:58.426Z,15.32
2018-12-23T20:04:00.295Z,13.60
2018-12-23T20:09:01.566Z,11.60
2018-12-23T20:13:55.672Z,13.17
2018-12-23T20:18:41.989Z,13.62
2018-12-23T20:23:27.803Z,10.48
2018-12-23T20:28:18.678Z,12.00
2018-12-23T20:31:08.610Z,14.40
2018-12-23T20:34:08.274Z,12.60
2018-12-23T20:37:15.802Z,13.70
2018-12-23T20:40:17.886Z,12.43
2018-12-23T20:43:09.066Z,10.67
2018-12-23T20:47:01.684Z,11.43
2018-12-23T20:49:50.787Z,9.13
2018-12-23T20:53:35.296Z,11.13
2018-12-23T21:00:33.134Z,9.35
2018-12-23T21:03:32.994Z,9.50
2018-12-23T21:06:52.698Z,8.77
2018-12-23T21:10:18.980Z,8.07
2018-12-23T21:13:45.267Z,7.15
2018-12-23T21:16:59.835Z,6.80
2018-12-23T21:20:32.407Z,6.20
2018-12-23T21:23:58.700Z,5.30
2018-12-23T21:27:24.913Z,5.93
2018-12-23T21:30:51.425Z,5.23
2018-12-23T21:34:45.265Z,4.87
2018-12-23T21:38:17.838Z,5.37
2018-12-23T21:41:32.155Z,3.83
2018-12-23T21:44:58.360Z,5.50
2018-12-23T21:48:25.103Z,3.77
2018-12-23T21:51:37.506Z,4.10
2018-12-23T21:57:55.490Z,5.13
2018-12-23T22:01:22.436Z,4.43
2018-12-23T22:04:48.945Z,3.87
2018-12-23T22:08:15.533Z,2.90
2018-12-23T22:11:42.384Z,3.97
2018-12-23T22:14:29.803Z,3.17
2018-12-23T22:17:17.499Z,2.97
2018-12-23T22:20:05.313Z,3.67
2018-12-23T22:22:55.468Z,4.70
2018-12-23T22:25:43.560Z,3.30
2018-12-23T22:28:31.014Z,3.70
2018-12-23T22:30:58.955Z,3.70
2018-12-23T22:33:27.705Z,3.87
2018-12-23T22:35:55.793Z,4.83
2018-12-23T22:38:43.754Z,4.63
2018-12-23T22:41:31.255Z,4.20
2018-12-23T22:44:19.286Z,4.77
2018-12-23T22:47:06.898Z,4.83
2018-12-23T22:49:55.202Z,4.37
2018-12-23T22:52:42.761Z,4.60
2018-12-23T22:55:30.082Z,2.17
2018-12-23T22:58:17.429Z,2.23
2018-12-23T23:01:05.549Z,1.60
2018-12-23T23:03:46.444Z,1.80
2018-12-23T23:06:33.789Z,1.10
2018-12-23T23:09:21.263Z,2.03
2018-12-23T23:11:49.968Z,3.70
2018-12-23T23:14:18.030Z,4.23
2018-12-23T23:17:05.507Z,5.13
2018-12-23T23:19:53.020Z,5.93
2018-12-23T23:22:21.055Z,4.00
2018-12-23T23:25:08.333Z,3.87
2018-12-23T23:27:55.655Z,2.43
2018-12-23T23:30:43.046Z,3.23
2018-12-23T23:33:30.335Z,2.03
2018-12-23T23:36:17.614Z,2.50
2018-12-23T23:38:45.430Z,1.97
2018-12-23T23:41:13.372Z,3.50
2018-12-23T23:44:02.393Z,1.45
2018-12-23T23:46:49.640Z,2.07
2018-12-23T23:49:36.905Z,3.40
2018-12-23T23:52:24.205Z,1.70
2018-12-23T23:55:11.483Z,1.65
2018-12-23T23:57:58.759Z,2.15
